createdAt,value
2022-12-13T00:00:31.608Z,0.00
2022-12-13T00:01:32.099Z,0.00
2022-12-13T00:02:32.199Z,0.00
2022-12-13T00:03:31.577Z,0.00
2022-12-13T00:04:32.100Z,0.00
2022-12-13T00:05:32.045Z,0.00
2022-12-13T00:06:32.019Z,0.00
2022-12-13T00:07:31.580Z,0.00
2022-12-13T00:08:32.152Z,0.00
2022-12-13T00:09:30.581Z,0.00
2022-12-13T00:10:32.006Z,0.00
2022-12-13T00:11:31.960Z,0.00
2022-12-13T00:12:31.525Z,0.00
2022-12-13T00:13:31.474Z,0.00
2022-12-13T00:14:31.535Z,0.00
2022-12-13T00:15:31.426Z,0.00
2022-12-13T00:16:31.993Z,0.00
2022-12-13T00:17:31.767Z,0.00
2022-12-13T00:18:31.910Z,0.00
2022-12-13T00:19:31.430Z,0.00
2022-12-13T00:20:31.963Z,0.00
2022-12-13T00:21:31.904Z,0.00
2022-12-13T00:22:31.857Z,0.00
2022-12-13T00:23:31.386Z,0.00
2022-12-13T00:24:31.380Z,0.00
2022-12-13T00:25:31.810Z,0.00
2022-12-13T00:26:31.454Z,0.00
2022-12-13T00:27:30.635Z,0.00
2022-12-13T00:28:31.821Z,0.00
2022-12-13T00:29:31.285Z,0.00
2022-12-13T00:30:30.483Z,0.00
2022-12-13T00:32:31.365Z,0.00
2022-12-13T00:33:31.272Z,0.00
2022-12-13T00:34:31.737Z,0.00
2022-12-13T00:35:31.711Z,0.00
2022-12-13T00:36:31.212Z,0.00
2022-12-13T00:37:31.703Z,0.00
2022-12-13T00:38:31.242Z,0.00
2022-12-13T00:39:31.203Z,0.00
2022-12-13T00:40:31.130Z,0.00
2022-12-13T00:41:30.420Z,0.00
2022-12-13T00:42:31.183Z,0.00
2022-12-13T00:43:30.341Z,0.00
2022-12-13T00:44:30.297Z,0.00
2022-12-13T00:45:30.293Z,0.00
2022-12-13T00:46:31.213Z,0.00
2022-12-13T00:47:31.165Z,0.00
2022-12-13T00:48:31.633Z,0.00
2022-12-13T00:49:30.717Z,0.00
2022-12-13T00:50:31.615Z,0.00
2022-12-13T00:51:31.052Z,0.00
2022-12-13T00:52:30.693Z,0.00
2022-12-13T00:53:31.070Z,0.00
2022-12-13T00:54:32.072Z,0.00
2022-12-13T00:55:32.062Z,0.00
2022-12-13T00:56:32.057Z,0.00
2022-12-13T00:57:31.034Z,0.00
2022-12-13T00:58:30.976Z,0.00
2022-12-13T00:59:31.030Z,0.00
2022-12-13T01:00:32.005Z,0.00
2022-12-13T01:01:32.163Z,0.00
2022-12-13T01:02:31.034Z,0.00
2022-12-13T01:03:31.448Z,0.00
2022-12-13T01:04:31.955Z,0.00
2022-12-13T01:06:11.050Z,0.00
2022-12-13T01:06:31.912Z,0.00
2022-12-13T01:07:31.920Z,0.00
2022-12-13T01:08:32.083Z,0.00
2022-12-13T01:09:30.914Z,0.00
2022-12-13T01:10:31.877Z,0.00
2022-12-13T01:11:30.907Z,0.00
2022-12-13T01:12:30.936Z,0.00
2022-12-13T01:13:31.369Z,0.00
2022-12-13T01:14:30.114Z,0.00
2022-12-13T01:15:31.837Z,0.00
2022-12-13T01:16:30.868Z,0.00
2022-12-13T01:17:31.812Z,0.00
2022-12-13T01:18:30.906Z,0.00
2022-12-13T01:19:31.293Z,0.00
2022-12-13T01:20:30.852Z,0.00
2022-12-13T01:21:30.780Z,0.00
2022-12-13T01:22:31.235Z,0.00
2022-12-13T01:23:31.230Z,0.00
2022-12-13T01:24:30.713Z,0.00
2022-12-13T01:25:31.224Z,0.00
2022-12-13T01:26:31.737Z,0.00
2022-12-13T01:27:30.653Z,0.00
2022-12-13T01:28:31.690Z,0.00
2022-12-13T01:29:31.134Z,0.00
2022-12-13T01:30:31.719Z,0.00
2022-12-13T01:31:30.644Z,0.00
2022-12-13T01:32:31.713Z,0.00
2022-12-13T01:33:31.094Z,0.00
2022-12-13T01:34:30.608Z,0.00
2022-12-13T01:35:31.602Z,0.00
2022-12-13T01:36:31.075Z,0.00
2022-12-13T01:37:31.621Z,0.00
2022-12-13T01:38:37.910Z,0.00
2022-12-13T01:39:31.560Z,0.00
2022-12-13T01:40:31.576Z,0.00
2022-12-13T01:41:30.614Z,0.00
2022-12-13T01:42:30.420Z,0.00
2022-12-13T01:43:31.033Z,0.00
2022-12-13T01:44:31.157Z,0.00
2022-12-13T01:45:30.568Z,0.00
2022-12-13T01:46:31.561Z,0.00
2022-12-13T01:47:30.711Z,0.00
2022-12-13T01:48:30.976Z,0.00
2022-12-13T01:49:30.975Z,0.00
2022-12-13T01:50:30.147Z,0.00
2022-12-13T01:51:30.430Z,0.00
2022-12-13T01:52:30.953Z,0.00
2022-12-13T01:53:30.416Z,0.00
2022-12-13T01:54:33.222Z,0.00
2022-12-13T01:55:29.775Z,0.00
2022-12-13T01:56:30.446Z,0.00
2022-12-13T01:57:31.397Z,0.00
2022-12-13T01:58:30.371Z,0.00
2022-12-13T01:59:30.865Z,0.00
2022-12-13T02:00:31.357Z,0.00
2022-12-13T02:01:30.905Z,0.00
2022-12-13T02:02:30.845Z,0.00
2022-12-13T02:03:30.895Z,0.00
2022-12-13T02:04:30.835Z,0.00
2022-12-13T02:05:30.359Z,0.00
2022-12-13T02:06:31.358Z,0.00
2022-12-13T02:07:32.488Z,0.00
2022-12-13T02:08:30.323Z,0.00
2022-12-13T02:09:31.788Z,0.00
2022-12-13T02:10:30.764Z,0.00
2022-12-13T02:11:31.249Z,0.00
2022-12-13T02:12:30.825Z,0.00
2022-12-13T02:13:31.336Z,0.00
2022-12-13T02:14:30.206Z,0.00
2022-12-13T02:15:31.269Z,0.00
2022-12-13T02:16:30.736Z,0.00
2022-12-13T02:17:31.258Z,0.00
2022-12-13T02:18:31.600Z,0.00
2022-12-13T02:19:30.707Z,0.00
2022-12-13T02:20:30.175Z,0.00
2022-12-13T02:21:30.675Z,0.00
2022-12-13T02:22:30.727Z,0.00
2022-12-13T02:23:29.618Z,0.00
2022-12-13T02:24:30.198Z,0.00
2022-12-13T02:25:30.677Z,0.00
2022-12-13T02:26:30.566Z,0.00
2022-12-13T02:27:31.585Z,0.00
2022-12-13T02:28:32.305Z,0.00
2022-12-13T02:29:31.518Z,0.00
2022-12-13T02:30:30.644Z,0.00
2022-12-13T02:31:30.093Z,0.00
2022-12-13T02:32:30.038Z,0.00
2022-12-13T02:33:30.520Z,0.00
2022-12-13T02:34:30.086Z,0.00
2022-12-13T02:35:31.080Z,0.00
2022-12-13T02:36:36.621Z,0.00
2022-12-13T02:37:30.912Z,0.00
2022-12-13T02:38:30.501Z,0.00
2022-12-13T02:39:31.022Z,0.00
2022-12-13T02:40:29.935Z,0.00
2022-12-13T02:41:29.939Z,0.00
2022-12-13T02:42:30.459Z,0.00
2022-12-13T02:43:33.601Z,0.00
2022-12-13T02:44:29.103Z,0.00
2022-12-13T02:45:29.033Z,0.00
2022-12-13T02:46:29.279Z,0.00
2022-12-13T02:47:29.932Z,0.00
2022-12-13T02:48:30.358Z,0.00
2022-12-13T02:49:29.270Z,0.00
2022-12-13T02:50:29.863Z,0.00
2022-12-13T02:51:29.890Z,0.00
2022-12-13T02:52:29.869Z,0.00
2022-12-13T02:53:30.350Z,0.00
2022-12-13T02:54:29.193Z,0.00
2022-12-13T02:55:30.298Z,0.00
2022-12-13T02:56:29.769Z,0.00
2022-12-13T02:57:29.778Z,0.00
2022-12-13T02:58:30.280Z,0.00
2022-12-13T02:59:29.806Z,0.00
2022-12-13T03:00:29.721Z,0.00
2022-12-13T03:01:30.263Z,0.00
2022-12-13T03:02:31.078Z,0.00
2022-12-13T03:03:29.967Z,0.00
2022-12-13T03:04:30.199Z,0.00
2022-12-13T03:05:29.700Z,0.00
2022-12-13T03:06:33.916Z,0.00
2022-12-13T03:07:29.008Z,0.00
2022-12-13T03:08:29.666Z,0.00
2022-12-13T03:09:29.661Z,0.00
2022-12-13T03:10:30.105Z,0.00
2022-12-13T03:11:30.160Z,0.00
2022-12-13T03:12:30.100Z,0.00
2022-12-13T03:13:30.112Z,0.00
2022-12-13T03:14:31.789Z,0.00
2022-12-13T03:15:30.054Z,0.00
2022-12-13T03:16:29.682Z,0.00
2022-12-13T03:17:29.591Z,0.00
2022-12-13T03:18:30.044Z,0.00
2022-12-13T03:19:30.055Z,0.00
2022-12-13T03:20:29.493Z,0.00
2022-12-13T03:21:29.242Z,0.00
2022-12-13T03:22:29.477Z,0.00
2022-12-13T03:23:30.091Z,0.00
2022-12-13T03:24:29.942Z,0.00
2022-12-13T03:25:31.514Z,0.00
2022-12-13T03:26:29.961Z,0.00
2022-12-13T03:27:29.951Z,0.00
2022-12-13T03:28:29.441Z,0.00
2022-12-13T03:29:29.466Z,0.00
2022-12-13T03:30:29.604Z,0.00
2022-12-13T03:31:29.454Z,0.00
2022-12-13T03:32:30.394Z,0.00
2022-12-13T03:33:29.392Z,0.00
2022-12-13T03:34:43.590Z,0.00
2022-12-13T03:35:34.920Z,0.00
2022-12-13T03:36:31.372Z,0.00
2022-12-13T03:37:29.364Z,0.00
2022-12-13T03:38:29.833Z,0.00
2022-12-13T03:39:29.837Z,0.00
2022-12-13T03:40:30.313Z,0.00
2022-12-13T03:41:29.355Z,0.00
2022-12-13T03:42:29.314Z,0.00
2022-12-13T03:43:29.282Z,0.00
2022-12-13T03:44:31.447Z,0.00
2022-12-13T03:45:29.264Z,0.00
2022-12-13T03:46:28.409Z,0.00
2022-12-13T03:47:29.775Z,0.00
2022-12-13T03:48:29.733Z,0.00
2022-12-13T03:49:35.144Z,0.00
2022-12-13T03:50:30.728Z,0.00
2022-12-13T03:51:29.212Z,0.00
2022-12-13T03:52:29.683Z,0.00
2022-12-13T03:53:33.755Z,0.00
2022-12-13T03:54:29.672Z,0.00
2022-12-13T03:55:29.064Z,0.00
2022-12-13T03:56:28.227Z,0.00
2022-12-13T03:57:28.202Z,0.00
2022-12-13T03:58:35.104Z,0.00
2022-12-13T03:59:30.724Z,0.00
2022-12-13T04:00:29.594Z,0.00
2022-12-13T04:01:29.656Z,0.00
2022-12-13T04:02:31.044Z,0.00
2022-12-13T04:03:28.180Z,0.00
2022-12-13T04:04:29.568Z,0.00
2022-12-13T04:05:29.086Z,0.00
2022-12-13T04:06:32.951Z,0.00
2022-12-13T04:07:34.314Z,0.00
2022-12-13T04:08:30.163Z,0.00
2022-12-13T04:09:28.094Z,0.00
2022-12-13T04:10:29.007Z,0.00
2022-12-13T04:11:28.812Z,0.00
2022-12-13T04:12:29.475Z,0.00
2022-12-13T04:13:28.035Z,0.00
2022-12-13T04:14:28.025Z,0.00
2022-12-13T04:15:28.044Z,0.00
2022-12-13T04:16:28.994Z,0.00
2022-12-13T04:17:29.551Z,0.00
2022-12-13T04:18:28.678Z,0.00
2022-12-13T04:19:29.436Z,0.00
2022-12-13T04:20:29.509Z,0.00
2022-12-13T04:21:29.071Z,0.00
2022-12-13T04:22:30.015Z,0.00
2022-12-13T04:23:29.406Z,0.00
2022-12-13T04:24:31.700Z,0.00
2022-12-13T04:25:29.365Z,0.00
2022-12-13T04:26:27.925Z,0.00
2022-12-13T04:27:28.838Z,0.00
2022-12-13T04:28:29.316Z,0.00
2022-12-13T04:29:34.341Z,0.00
2022-12-13T04:30:29.128Z,0.00
2022-12-13T04:31:28.977Z,0.00
2022-12-13T04:32:28.794Z,0.00
2022-12-13T04:33:28.776Z,0.00
2022-12-13T04:34:34.937Z,0.00
2022-12-13T04:35:29.786Z,0.00
2022-12-13T04:36:31.961Z,0.00
2022-12-13T04:37:27.777Z,0.00
2022-12-13T04:38:29.266Z,0.00
2022-12-13T04:39:28.725Z,0.00
2022-12-13T04:40:30.196Z,0.00
2022-12-13T04:41:34.389Z,0.00
2022-12-13T04:42:29.681Z,0.00
2022-12-13T04:43:29.176Z,0.00
2022-12-13T04:44:32.597Z,0.00
2022-12-13T04:45:30.207Z,0.00
2022-12-13T04:46:29.130Z,0.00
2022-12-13T04:47:28.650Z,0.00
2022-12-13T04:48:31.259Z,0.00
2022-12-13T04:49:27.776Z,0.00
2022-12-13T04:50:28.368Z,0.00
2022-12-13T04:51:30.537Z,0.00
2022-12-13T04:52:29.585Z,0.00
2022-12-13T04:53:28.597Z,0.00
2022-12-13T04:54:35.692Z,0.00
2022-12-13T04:55:29.548Z,0.00
2022-12-13T04:56:28.418Z,0.00
2022-12-13T04:57:28.987Z,0.00
2022-12-13T04:58:27.606Z,0.00
2022-12-13T04:59:28.066Z,0.00
2022-12-13T05:00:29.017Z,0.00
2022-12-13T05:01:27.580Z,0.00
2022-12-13T05:02:27.615Z,0.00
2022-12-13T05:03:27.576Z,0.00
2022-12-13T05:04:32.622Z,0.00
2022-12-13T05:05:27.599Z,0.00
2022-12-13T05:06:28.478Z,0.00
2022-12-13T05:07:27.489Z,0.00
2022-12-13T05:08:28.429Z,0.00
2022-12-13T05:09:28.889Z,0.00
2022-12-13T05:10:36.059Z,0.00
2022-12-13T05:11:35.370Z,0.00
2022-12-13T05:12:29.368Z,0.00
2022-12-13T05:13:27.411Z,0.00
2022-12-13T05:14:27.398Z,0.00
2022-12-13T05:15:28.809Z,0.00
2022-12-13T05:16:27.405Z,0.00
2022-12-13T05:17:28.834Z,0.00
2022-12-13T05:18:28.807Z,0.00
2022-12-13T05:19:30.885Z,0.00
2022-12-13T05:20:27.348Z,0.00
2022-12-13T05:21:27.332Z,0.00
2022-12-13T05:22:28.762Z,0.00
2022-12-13T05:23:28.349Z,0.00
2022-12-13T05:24:27.296Z,0.00
2022-12-13T05:25:27.290Z,0.00
2022-12-13T05:26:27.278Z,0.00
2022-12-13T05:27:27.286Z,0.00
2022-12-13T05:28:29.126Z,0.00
2022-12-13T05:29:28.812Z,0.00
2022-12-13T05:30:28.129Z,0.00
2022-12-13T05:31:28.677Z,0.00
2022-12-13T05:32:28.140Z,0.00
2022-12-13T05:33:27.222Z,0.00
2022-12-13T05:34:28.628Z,0.00
2022-12-13T05:35:28.115Z,0.00
2022-12-13T05:36:28.618Z,0.00
2022-12-13T05:37:27.172Z,0.00
2022-12-13T05:38:28.600Z,0.00
2022-12-13T05:39:28.000Z,0.00
2022-12-13T05:40:28.053Z,0.00
2022-12-13T05:41:27.434Z,0.00
2022-12-13T05:42:27.131Z,0.00
2022-12-13T05:43:42.232Z,0.00
2022-12-13T05:44:29.020Z,0.00
2022-12-13T05:45:28.511Z,0.00
2022-12-13T05:46:27.996Z,0.00
2022-12-13T05:47:27.195Z,0.00
2022-12-13T05:48:27.884Z,0.00
2022-12-13T05:49:27.961Z,0.00
2022-12-13T05:50:27.047Z,0.00
2022-12-13T05:51:27.020Z,0.00
2022-12-13T05:52:30.528Z,0.00
2022-12-13T05:53:30.891Z,0.00
2022-12-13T05:54:27.891Z,0.00
2022-12-13T05:55:26.975Z,0.00
2022-12-13T05:56:27.931Z,0.00
2022-12-13T05:57:27.861Z,0.00
2022-12-13T05:58:27.841Z,0.00
2022-12-13T05:59:29.395Z,0.00
2022-12-13T06:00:28.763Z,0.00
2022-12-13T06:01:26.923Z,0.00
2022-12-13T06:02:28.017Z,0.00
2022-12-13T06:03:27.916Z,0.00
2022-12-13T06:04:27.815Z,0.00
2022-12-13T06:05:26.990Z,0.00
2022-12-13T06:06:26.879Z,0.00
2022-12-13T06:07:26.870Z,0.00
2022-12-13T06:08:26.876Z,0.00
2022-12-13T06:09:26.856Z,0.00
2022-12-13T06:10:34.112Z,0.00
2022-12-13T06:11:32.026Z,0.00
2022-12-13T06:12:32.378Z,0.00
2022-12-13T06:13:31.933Z,0.00
2022-12-13T06:14:26.770Z,0.00
2022-12-13T06:15:27.143Z,0.00
2022-12-13T06:16:27.841Z,0.00
2022-12-13T06:17:26.803Z,0.00
2022-12-13T06:18:26.737Z,0.00
2022-12-13T06:19:26.736Z,0.00
2022-12-13T06:20:26.714Z,0.00
2022-12-13T06:21:26.720Z,0.00
2022-12-13T06:22:27.603Z,0.00
2022-12-13T06:23:27.654Z,0.00
2022-12-13T06:24:27.582Z,0.00
2022-12-13T06:25:31.277Z,0.00
2022-12-13T06:26:29.083Z,0.00
2022-12-13T06:27:27.554Z,0.00
2022-12-13T06:28:27.553Z,0.00
2022-12-13T06:29:28.594Z,0.00
2022-12-13T06:30:27.578Z,0.00
2022-12-13T06:31:26.622Z,0.00
2022-12-13T06:32:28.005Z,0.00
2022-12-13T06:33:27.504Z,0.00
2022-12-13T06:34:26.726Z,0.00
2022-12-13T06:35:29.884Z,0.00
2022-12-13T06:36:27.457Z,0.00
2022-12-13T06:37:26.541Z,0.00
2022-12-13T06:38:31.579Z,0.00
2022-12-13T06:39:32.882Z,0.00
2022-12-13T06:40:27.414Z,0.00
2022-12-13T06:41:32.092Z,0.00
2022-12-13T06:42:27.402Z,0.00
2022-12-13T06:43:26.472Z,0.00
2022-12-13T06:44:26.464Z,0.00
2022-12-13T06:45:27.364Z,0.00
2022-12-13T06:46:27.932Z,0.00
2022-12-13T06:47:31.001Z,0.00
2022-12-13T06:48:27.433Z,0.00
2022-12-13T06:49:27.335Z,0.00
2022-12-13T06:50:28.316Z,0.00
2022-12-13T06:51:32.560Z,4.00
2022-12-13T06:52:28.835Z,0.00
2022-12-13T06:53:27.285Z,0.00
2022-12-13T06:54:26.356Z,4.00
2022-12-13T06:55:26.355Z,4.00
2022-12-13T06:56:26.361Z,0.00
2022-12-13T06:57:27.247Z,0.00
2022-12-13T06:58:27.281Z,4.00
2022-12-13T06:59:27.140Z,4.00
2022-12-13T07:00:33.088Z,4.00
2022-12-13T07:01:27.387Z,4.00
2022-12-13T07:02:27.258Z,4.00
2022-12-13T07:03:27.282Z,4.00
2022-12-13T07:04:28.860Z,4.00
2022-12-13T07:05:27.185Z,4.00
2022-12-13T07:06:26.279Z,8.00
2022-12-13T07:07:26.292Z,8.00
2022-12-13T07:08:27.695Z,8.00
2022-12-13T07:09:27.637Z,12.00
2022-12-13T07:10:27.127Z,12.00
2022-12-13T07:11:27.617Z,16.00
2022-12-13T07:12:27.617Z,20.00
2022-12-13T07:13:27.103Z,20.00
2022-12-13T07:14:27.571Z,28.00
2022-12-13T07:15:26.275Z,32.00
2022-12-13T07:16:26.213Z,36.00
2022-12-13T07:17:32.481Z,44.00
2022-12-13T07:18:28.027Z,44.00
2022-12-13T07:19:27.536Z,48.00
2022-12-13T07:20:27.095Z,56.00
2022-12-13T07:21:27.518Z,60.00
2022-12-13T07:22:27.972Z,68.00
2022-12-13T07:23:27.498Z,76.00
2022-12-13T07:24:27.004Z,84.00
2022-12-13T07:25:29.440Z,88.00
2022-12-13T07:26:26.993Z,96.00
2022-12-13T07:27:27.449Z,96.00
2022-12-13T07:28:27.956Z,104.00
2022-12-13T07:29:27.428Z,112.00
2022-12-13T07:30:27.501Z,116.00
2022-12-13T07:31:26.956Z,124.00
2022-12-13T07:32:26.895Z,124.00
2022-12-13T07:33:26.927Z,128.00
2022-12-13T07:34:26.918Z,132.00
2022-12-13T07:35:27.385Z,136.00
2022-12-13T07:36:27.837Z,144.00
2022-12-13T07:37:29.835Z,152.00
2022-12-13T07:38:26.837Z,160.00
2022-12-13T07:39:26.826Z,172.00
2022-12-13T07:40:26.845Z,184.00
2022-12-13T07:41:27.829Z,188.00
2022-12-13T07:42:26.849Z,196.00
2022-12-13T07:43:28.200Z,212.00
2022-12-13T07:44:26.777Z,212.00
2022-12-13T07:45:26.068Z,220.00
2022-12-13T07:46:26.816Z,236.00
2022-12-13T07:47:26.837Z,252.00
2022-12-13T07:48:36.819Z,268.00
2022-12-13T07:49:26.719Z,288.00
2022-12-13T07:50:26.731Z,304.00
2022-12-13T07:51:27.220Z,308.00
2022-12-13T07:52:26.180Z,316.00
2022-12-13T07:53:27.204Z,332.00
2022-12-13T07:54:26.705Z,340.00
2022-12-13T07:55:33.344Z,360.00
2022-12-13T07:56:27.904Z,364.00
2022-12-13T07:57:27.149Z,372.00
2022-12-13T07:58:27.673Z,392.00
2022-12-13T07:59:28.314Z,404.00
2022-12-13T08:00:26.299Z,412.00
2022-12-13T08:01:26.640Z,448.00
2022-12-13T08:02:26.612Z,452.00
2022-12-13T08:03:26.993Z,440.00
2022-12-13T08:04:26.666Z,452.00
2022-12-13T08:05:27.496Z,456.00
2022-12-13T08:06:27.040Z,476.00
2022-12-13T08:07:27.043Z,456.00
2022-12-13T08:08:31.174Z,460.00
2022-12-13T08:09:27.530Z,464.00
2022-12-13T08:10:26.554Z,480.00
2022-12-13T08:11:26.536Z,484.00
2022-12-13T08:12:26.522Z,488.00
2022-12-13T08:13:27.011Z,516.00
2022-12-13T08:14:26.988Z,556.00
2022-12-13T08:15:26.502Z,592.00
2022-12-13T08:16:29.418Z,584.00
2022-12-13T08:17:26.466Z,616.00
2022-12-13T08:18:26.940Z,672.00
2022-12-13T08:19:26.911Z,684.00
2022-12-13T08:20:26.575Z,692.00
2022-12-13T08:21:52.426Z,704.00
2022-12-13T08:22:27.302Z,720.00
2022-12-13T08:23:27.266Z,752.00
2022-12-13T08:24:26.431Z,776.00
2022-12-13T08:25:27.332Z,832.00
2022-12-13T08:26:27.251Z,896.00
2022-12-13T08:27:27.265Z,932.00
2022-12-13T08:28:26.321Z,916.00
2022-12-13T08:29:34.533Z,924.00
2022-12-13T08:30:27.320Z,1020.00
2022-12-13T08:31:26.334Z,1024.00
2022-12-13T08:32:26.397Z,1040.00
2022-12-13T08:33:26.793Z,1044.00
2022-12-13T08:34:26.774Z,1104.00
2022-12-13T08:35:33.493Z,1156.00
2022-12-13T08:36:27.213Z,1152.00
2022-12-13T08:37:26.740Z,1352.00
2022-12-13T08:38:26.262Z,1560.00
2022-12-13T08:39:26.234Z,1724.00
2022-12-13T08:40:26.698Z,1660.00
2022-12-13T08:41:26.684Z,1608.00
2022-12-13T08:42:26.731Z,1592.00
2022-12-13T08:43:26.284Z,1944.00
2022-12-13T08:44:26.254Z,1936.00
2022-12-13T08:45:26.203Z,2036.00
2022-12-13T08:46:26.815Z,2132.00
2022-12-13T08:47:27.045Z,2072.00
2022-12-13T08:48:26.157Z,2044.00
2022-12-13T08:49:26.195Z,2248.00
2022-12-13T08:50:25.484Z,2404.00
2022-12-13T08:51:29.620Z,2496.00
2022-12-13T08:52:27.055Z,2648.00
2022-12-13T08:53:28.421Z,2740.00
2022-12-13T08:54:31.723Z,2816.00
2022-12-13T08:55:31.454Z,2840.00
2022-12-13T08:56:26.537Z,2852.00
2022-12-13T08:57:26.085Z,2884.00
2022-12-13T08:58:26.494Z,2908.00
2022-12-13T08:59:26.076Z,2944.00
2022-12-13T09:00:25.787Z,3016.00
2022-12-13T09:01:26.515Z,3052.00
2022-12-13T09:02:27.477Z,3140.00
2022-12-13T09:03:26.491Z,3156.00
2022-12-13T09:04:31.599Z,3192.00
2022-12-13T09:05:33.272Z,3208.00
2022-12-13T09:06:26.957Z,3172.00
2022-12-13T09:07:25.934Z,3224.00
2022-12-13T09:08:25.670Z,3244.00
2022-12-13T09:09:26.414Z,3284.00
2022-12-13T09:10:27.941Z,3284.00
2022-12-13T09:11:34.525Z,3332.00
2022-12-13T09:12:30.866Z,3356.00
2022-12-13T09:13:31.526Z,3324.00
2022-12-13T09:14:27.053Z,3400.00
2022-12-13T09:15:26.015Z,3376.00
2022-12-13T09:16:27.386Z,3392.00
2022-12-13T09:17:26.420Z,3416.00
2022-12-13T09:18:36.045Z,3444.00
2022-12-13T09:19:27.078Z,3404.00
2022-12-13T09:20:29.032Z,3500.00
2022-12-13T09:21:31.486Z,3516.00
2022-12-13T09:22:33.595Z,3504.00
2022-12-13T09:23:27.612Z,3532.00
2022-12-13T09:24:27.298Z,3580.00
2022-12-13T09:25:25.798Z,3560.00
2022-12-13T09:26:26.233Z,3568.00
2022-12-13T09:27:27.806Z,3552.00
2022-12-13T09:28:26.206Z,3532.00
2022-12-13T09:29:25.777Z,3548.00
2022-12-13T09:30:24.875Z,0.00
2022-12-13T09:31:26.730Z,0.00
2022-12-13T09:32:26.172Z,0.00
2022-12-13T09:33:30.342Z,0.00
2022-12-13T09:34:27.225Z,0.00
2022-12-13T09:35:26.129Z,0.00
2022-12-13T09:36:26.141Z,0.00
2022-12-13T09:37:25.614Z,0.00
2022-12-13T09:38:26.109Z,0.00
2022-12-13T09:39:26.150Z,0.00
2022-12-13T09:40:26.651Z,0.00
2022-12-13T09:41:28.807Z,0.00
2022-12-13T09:42:30.574Z,0.00
2022-12-13T09:43:31.642Z,0.00
2022-12-13T09:44:32.925Z,0.00
2022-12-13T09:45:32.124Z,0.00
2022-12-13T09:46:26.025Z,0.00
2022-12-13T09:47:25.596Z,0.00
2022-12-13T09:48:26.364Z,0.00
2022-12-13T09:49:26.010Z,0.00
2022-12-13T09:50:25.975Z,0.00
2022-12-13T09:51:28.655Z,0.00
2022-12-13T09:52:26.456Z,0.00
2022-12-13T09:53:33.609Z,0.00
2022-12-13T09:54:26.454Z,0.00
2022-12-13T09:55:26.420Z,0.00
2022-12-13T09:56:25.421Z,0.00
2022-12-13T09:57:32.664Z,0.00
2022-12-13T09:58:26.896Z,0.00
2022-12-13T09:59:25.892Z,0.00
2022-12-13T10:00:25.003Z,0.00
2022-12-13T10:01:25.931Z,0.00
2022-12-13T10:02:25.423Z,0.00
2022-12-13T10:03:26.095Z,0.00
2022-12-13T10:04:25.811Z,0.00
2022-12-13T10:05:34.026Z,0.00
2022-12-13T10:06:27.270Z,0.00
2022-12-13T10:07:26.311Z,0.00
2022-12-13T10:08:25.784Z,0.00
2022-12-13T10:09:25.352Z,0.00
2022-12-13T10:10:25.261Z,0.00
2022-12-13T10:11:32.675Z,0.00
2022-12-13T10:12:26.724Z,0.00
2022-12-13T10:13:25.973Z,0.00
2022-12-13T10:14:25.725Z,0.00
2022-12-13T10:15:25.736Z,0.00
2022-12-13T10:16:24.439Z,0.00
2022-12-13T10:17:25.253Z,0.00
2022-12-13T10:18:25.711Z,0.00
2022-12-13T10:19:29.298Z,0.00
2022-12-13T10:20:26.661Z,0.00
2022-12-13T10:21:25.159Z,0.00
2022-12-13T10:22:25.633Z,0.00
2022-12-13T10:23:59.339Z,0.00
2022-12-13T10:24:32.899Z,0.00
2022-12-13T10:25:26.114Z,0.00
2022-12-13T10:26:25.347Z,0.00
2022-12-13T10:27:25.141Z,0.00
2022-12-13T10:28:25.613Z,0.00
2022-12-13T10:29:25.575Z,0.00
2022-12-13T10:30:28.479Z,0.00
2022-12-13T10:31:26.525Z,0.00
2022-12-13T10:32:25.542Z,0.00
2022-12-13T10:33:25.748Z,0.00
2022-12-13T10:34:25.506Z,0.00
2022-12-13T10:35:25.517Z,0.00
2022-12-13T10:36:26.574Z,0.00
2022-12-13T10:37:25.093Z,0.00
2022-12-13T10:38:32.148Z,0.00
2022-12-13T10:39:27.370Z,0.00
2022-12-13T10:40:32.402Z,0.00
2022-12-13T10:41:25.956Z,0.00
2022-12-13T10:42:26.795Z,0.00
2022-12-13T10:43:26.571Z,0.00
2022-12-13T10:44:25.560Z,0.00
2022-12-13T10:45:24.817Z,0.00
2022-12-13T10:46:25.615Z,0.00
2022-12-13T10:47:24.869Z,0.00
2022-12-13T10:48:24.861Z,0.00
2022-12-13T10:49:25.393Z,0.00
2022-12-13T10:50:24.882Z,0.00
2022-12-13T10:51:24.853Z,0.00
2022-12-13T10:52:31.462Z,0.00
2022-12-13T10:53:26.148Z,0.00
2022-12-13T10:54:24.790Z,0.00
2022-12-13T10:55:24.817Z,0.00
2022-12-13T10:56:24.095Z,0.00
2022-12-13T10:57:24.767Z,0.00
2022-12-13T10:58:25.285Z,0.00
2022-12-13T10:59:25.266Z,0.00
2022-12-13T11:00:24.746Z,0.00
2022-12-13T11:01:24.809Z,0.00
2022-12-13T11:02:25.266Z,0.00
2022-12-13T11:03:25.494Z,0.00
2022-12-13T11:04:27.948Z,0.00
2022-12-13T11:05:24.690Z,0.00
2022-12-13T11:06:24.698Z,0.00
2022-12-13T11:07:24.700Z,0.00
2022-12-13T11:08:24.276Z,0.00
2022-12-13T11:09:24.636Z,0.00
2022-12-13T11:10:27.398Z,0.00
2022-12-13T11:11:24.641Z,0.00
2022-12-13T11:12:24.623Z,0.00
2022-12-13T11:13:24.899Z,0.00
2022-12-13T11:14:32.000Z,0.00
2022-12-13T11:15:26.089Z,0.00
2022-12-13T11:16:24.639Z,0.00
2022-12-13T11:17:24.576Z,0.00
2022-12-13T11:18:23.841Z,0.00
2022-12-13T11:19:25.372Z,0.00
2022-12-13T11:20:23.778Z,0.00
2022-12-13T11:21:24.532Z,0.00
2022-12-13T11:22:24.519Z,0.00
2022-12-13T11:23:24.991Z,0.00
2022-12-13T11:24:24.498Z,0.00
2022-12-13T11:25:23.668Z,0.00
2022-12-13T11:26:24.370Z,0.00
2022-12-13T11:27:25.640Z,0.00
2022-12-13T11:28:26.519Z,0.00
2022-12-13T11:29:27.369Z,0.00
2022-12-13T11:30:23.961Z,0.00
2022-12-13T11:31:24.466Z,0.00
2022-12-13T11:32:24.414Z,0.00
2022-12-13T11:33:24.893Z,0.00
2022-12-13T11:34:24.869Z,0.00
2022-12-13T11:35:24.370Z,0.00
2022-12-13T11:36:24.418Z,0.00
2022-12-13T11:37:24.916Z,0.00
2022-12-13T11:38:24.500Z,0.00
2022-12-13T11:39:24.342Z,0.00
2022-12-13T11:40:24.830Z,0.00
2022-12-13T11:41:32.522Z,0.00
2022-12-13T11:42:24.543Z,0.00
2022-12-13T11:43:24.820Z,0.00
2022-12-13T11:44:24.788Z,0.00
2022-12-13T11:45:24.255Z,0.00
2022-12-13T11:46:24.786Z,0.00
2022-12-13T11:47:24.772Z,0.00
2022-12-13T11:48:23.821Z,0.00
2022-12-13T11:49:24.710Z,0.00
2022-12-13T11:50:33.807Z,0.00
2022-12-13T11:51:25.701Z,0.00
2022-12-13T11:52:24.175Z,0.00
2022-12-13T11:53:24.520Z,0.00
2022-12-13T11:54:24.690Z,0.00
2022-12-13T11:55:24.629Z,0.00
2022-12-13T11:56:24.162Z,0.00
2022-12-13T11:57:23.556Z,0.00
2022-12-13T11:58:53.895Z,0.00
2022-12-13T11:59:27.317Z,0.00
2022-12-13T12:00:34.520Z,0.00
2022-12-13T12:01:25.110Z,0.00
2022-12-13T12:02:24.633Z,0.00
2022-12-13T12:03:23.187Z,0.00
2022-12-13T12:04:24.542Z,0.00
2022-12-13T12:05:24.563Z,0.00
2022-12-13T12:06:23.101Z,0.00
2022-12-13T12:07:32.935Z,0.00
2022-12-13T12:08:33.406Z,0.00
2022-12-13T12:09:25.531Z,0.00
2022-12-13T12:10:24.489Z,0.00
2022-12-13T12:11:24.532Z,0.00
2022-12-13T12:12:24.982Z,0.00
2022-12-13T12:13:23.963Z,0.00
2022-12-13T12:14:24.451Z,0.00
2022-12-13T12:15:26.754Z,0.00
2022-12-13T12:16:23.088Z,0.00
2022-12-13T12:17:24.438Z,0.00
2022-12-13T12:18:24.372Z,0.00
2022-12-13T12:19:23.919Z,0.00
2022-12-13T12:20:24.510Z,0.00
2022-12-13T12:21:32.794Z,0.00
2022-12-13T12:22:24.902Z,0.00
2022-12-13T12:23:23.857Z,0.00
2022-12-13T12:24:23.863Z,0.00
2022-12-13T12:25:23.833Z,0.00
2022-12-13T12:26:23.811Z,0.00
2022-12-13T12:27:24.321Z,0.00
2022-12-13T12:28:24.806Z,0.00
2022-12-13T12:29:24.628Z,0.00
2022-12-13T12:30:24.418Z,0.00
2022-12-13T12:31:23.842Z,0.00
2022-12-13T12:32:22.888Z,0.00
2022-12-13T12:33:22.825Z,0.00
2022-12-13T12:34:27.183Z,0.00
2022-12-13T12:35:22.816Z,0.00
2022-12-13T12:36:23.758Z,0.00
2022-12-13T12:37:23.779Z,0.00
2022-12-13T12:38:23.165Z,0.00
2022-12-13T12:39:26.493Z,0.00
2022-12-13T12:40:22.780Z,0.00
2022-12-13T12:41:23.645Z,0.00
2022-12-13T12:42:23.679Z,0.00
2022-12-13T12:43:22.756Z,0.00
2022-12-13T12:44:22.734Z,0.00
2022-12-13T12:45:55.176Z,0.00
2022-12-13T12:46:24.097Z,0.00
2022-12-13T12:49:25.246Z,0.00
2022-12-13T12:50:23.577Z,0.00
2022-12-13T12:51:22.737Z,0.00
2022-12-13T12:52:23.536Z,0.00
2022-12-13T12:53:23.563Z,0.00
2022-12-13T12:54:31.870Z,0.00
2022-12-13T12:55:25.036Z,0.00
2022-12-13T12:56:23.516Z,0.00
2022-12-13T12:57:23.545Z,0.00
2022-12-13T12:58:23.788Z,0.00
2022-12-13T12:59:23.459Z,0.00
2022-12-13T13:00:23.472Z,0.00
2022-12-13T13:01:23.534Z,0.00
2022-12-13T13:02:22.707Z,0.00
2022-12-13T13:03:23.567Z,0.00
2022-12-13T13:04:23.467Z,0.00
2022-12-13T13:05:23.398Z,0.00
2022-12-13T13:06:23.918Z,0.00
2022-12-13T13:07:24.153Z,0.00
2022-12-13T13:08:24.253Z,0.00
2022-12-13T13:09:24.694Z,0.00
2022-12-13T13:10:26.063Z,0.00